Time;durP1;ratioP1;P1;durP2;ratioP2;P2;SDS_P1;SDS_P2;PMS_P1;PMS_P2;Temp;Humidity;BMP_temperature;BMP_pressure;BME280_temperature;BME280_humidity;BME280_pressure;Samples;Min_cycle;Max_cycle;Signal;HPM_P1;HPM_P2
2024/02/22 00:02:21;;;;;;;;;;;;;;;16.67;38.51;95038.03;10523045;28;2224;-59
2024/02/22 00:07:21;;;;;;;;;;;;;;;16.71;38.51;95041.69;10515407;28;1906;-60
2024/02/22 00:12:21;;;;;;;;;;;;;;;16.75;38.49;95048.75;10521437;28;1482;-60
2024/02/22 00:17:21;;;;;;;;;;;;;;;16.81;38.39;95065.22;10518039;28;1988;-59
2024/02/22 00:22:22;;;;;;;;;;;;;;;16.80;38.50;95061.03;10522769;28;1433;-59
2024/02/22 00:27:24;;;;;;;;;;;;;;;16.85;38.46;95050.56;10516273;28;1913;-59
2024/02/22 00:32:24;;;;;;;;;;;;;;;16.89;38.44;95044.53;10514829;28;1603;-59
2024/02/22 00:37:24;;;;;;;;;;;;;;;16.93;38.36;95039.53;10512783;28;1465;-59
2024/02/22 00:42:25;;;;;;;;;;;;;;;16.95;38.18;95027.75;10512661;28;1417;-60
2024/02/22 00:47:25;;;;;;;;;;;;;;;16.98;38.10;95006.25;10520329;28;1906;-58
2024/02/22 00:52:25;;;;;;;;;;;;;;;17.03;38.21;95003.63;10513599;28;1405;-59
2024/02/22 00:57:25;;;;;;;;;;;;;;;17.01;38.14;94994.47;10514749;28;2343;-61
2024/02/22 01:02:26;;;;;;;;;;;;;;;17.06;37.89;94971.66;10518677;28;1544;-59
2024/02/22 01:07:26;;;;;;;;;;;;;;;17.08;38.07;94959.06;10512035;28;1918;-59
2024/02/22 01:12:27;;;;;;;;;;;;;;;17.08;38.02;94953.06;10516265;28;1601;-59
2024/02/22 01:17:27;;;;;;;;;;;;;;;17.13;37.84;94954.88;10525332;28;1453;-60
2024/02/22 01:22:27;;;;;;;;;;;;;;;17.18;37.93;94945.16;10509465;28;1354;-59
2024/02/22 01:27:27;;;;;;;;;;;;;;;17.19;37.84;94938.09;10520502;28;1922;-60
2024/02/22 01:32:28;;;;;;;;;;;;;;;17.26;37.75;94928.88;10517092;28;1614;-60
2024/02/22 01:37:28;;;;;;;;;;;;;;;17.28;37.68;94908.44;10518358;28;1389;-59
2024/02/22 01:42:29;;;;;;;;;;;;;;;17.30;37.65;94903.69;10511023;28;1361;-59
2024/02/22 01:47:29;;;;;;;;;;;;;;;17.29;37.59;94911.84;10517884;28;1913;-59
2024/02/22 01:52:29;;;;;;;;;;;;;;;17.28;37.56;94899.78;10516660;28;2275;-59
2024/02/22 01:57:29;;;;;;;;;;;;;;;17.32;37.57;94893.72;10518991;28;1550;-59
2024/02/22 02:02:30;;;;;;;;;;;;;;;17.33;37.40;94884.81;10509038;28;1282;-60
2024/02/22 02:07:30;;;;;;;;;;;;;;;17.38;37.41;94873.50;10518600;28;1906;-59
2024/02/22 02:12:30;;;;;;;;;;;;;;;17.43;37.43;94871.66;10520152;28;960;-59
2024/02/22 02:17:31;;;;;;;;;;;;;;;17.46;37.35;94863.22;10537117;28;1401;-59
2024/02/22 02:22:50;;;;;;;;;;;;;;;17.46;37.20;94850.13;10530766;28;1580;-59
2024/02/22 02:27:50;;;;;;;;;;;;;;;17.48;37.26;94849.84;10524108;28;1914;-60
2024/02/22 02:32:51;;;;;;;;;;;;;;;17.46;37.21;94834.41;10519820;28;1534;-59
2024/02/22 02:37:51;;;;;;;;;;;;;;;17.51;37.19;94828.38;10519838;28;1347;-59
2024/02/22 02:42:51;;;;;;;;;;;;;;;17.54;37.18;94825.97;10518914;28;1414;-60
2024/02/22 02:47:52;;;;;;;;;;;;;;;17.58;37.15;94821.75;10513491;28;2449;-60
2024/02/22 02:52:53;;;;;;;;;;;;;;;17.52;37.25;94807.13;10515604;28;1566;-59
2024/02/22 02:57:54;;;;;;;;;;;;;;;17.57;37.09;94794.00;10517809;28;1511;-59
2024/02/22 03:02:56;;;;;;;;;;;;;;;17.58;37.11;94787.69;10510356;28;1635;-59
2024/02/22 03:07:57;;;;;;;;;;;;;;;17.57;37.17;94773.03;10507230;28;1906;-60
2024/02/22 03:12:57;;;;;;;;;;;;;;;17.59;37.08;94754.41;10524212;28;1897;-59
2024/02/22 03:17:57;;;;;;;;;;;;;;;17.66;37.01;94741.75;10511556;28;1501;-58
2024/02/22 03:22:58;;;;;;;;;;;;;;;17.63;36.95;94739.69;10512099;28;1577;-59
2024/02/22 03:27:59;;;;;;;;;;;;;;;17.64;37.04;94728.16;10514227;28;1910;-59
2024/02/22 03:33:01;;;;;;;;;;;;;;;17.62;37.07;94707.47;10515391;28;1817;-59
2024/02/22 03:38:01;;;;;;;;;;;;;;;17.66;37.01;94700.59;10528189;28;1357;-59
2024/02/22 03:43:02;;;;;;;;;;;;;;;17.64;36.96;94691.47;10519348;28;1329;-59
2024/02/22 03:48:02;;;;;;;;;;;;;;;17.72;36.86;94678.50;10527103;28;2550;-58
2024/02/22 03:53:05;;;;;;;;;;;;;;;17.71;36.79;94669.09;10530829;28;1474;-59
2024/02/22 03:58:06;;;;;;;;;;;;;;;17.76;36.74;94663.78;10514021;28;1479;-59
2024/02/22 04:03:06;;;;;;;;;;;;;;;17.74;36.74;94647.56;10520494;28;1429;-59
2024/02/22 04:08:06;;;;;;;;;;;;;;;17.69;36.82;94645.00;10523414;28;1906;-59
2024/02/22 04:13:08;;;;;;;;;;;;;;;17.79;36.80;94633.59;10513989;28;1409;-59
2024/02/22 04:18:09;;;;;;;;;;;;;;;17.72;36.91;94639.19;10518839;28;1362;-59
2024/02/22 04:23:09;;;;;;;;;;;;;;;17.77;36.66;94626.03;10513811;28;1378;-59
2024/02/22 04:28:10;;;;;;;;;;;;;;;17.78;36.67;94622.34;10519687;28;1917;-58
2024/02/22 04:33:12;;;;;;;;;;;;;;;17.84;36.69;94623.84;10530812;28;1287;-59
2024/02/22 04:38:12;;;;;;;;;;;;;;;17.83;36.60;94618.88;10530080;28;1378;-59
2024/02/22 04:43:13;;;;;;;;;;;;;;;17.80;36.69;94609.72;10533290;28;2277;-59
2024/02/22 04:48:13;;;;;;;;;;;;;;;17.90;36.68;94603.59;10514775;28;1977;-59
2024/02/22 04:53:14;;;;;;;;;;;;;;;17.89;36.58;94617.75;10525540;28;1393;-59
2024/02/22 04:58:14;;;;;;;;;;;;;;;17.91;36.49;94604.38;10529022;28;1933;-59
2024/02/22 05:03:14;;;;;;;;;;;;;;;17.85;36.67;94609.66;10513762;28;1029;-59
2024/02/22 05:08:14;;;;;;;;;;;;;;;17.86;36.52;94600.75;10521866;28;1967;-59
2024/02/22 05:13:15;;;;;;;;;;;;;;;17.89;36.52;94592.31;10514039;28;1473;-59
2024/02/22 05:18:15;;;;;;;;;;;;;;;17.87;36.67;94597.06;10486588;28;1054485;-59
2024/02/22 05:23:15;;;;;;;;;;;;;;;17.99;36.32;94590.63;10512314;28;1354;-59
2024/02/22 05:28:16;;;;;;;;;;;;;;;18.00;36.41;94576.44;10516756;28;1941;-59
2024/02/22 05:33:16;;;;;;;;;;;;;;;17.96;36.44;94589.34;10516091;28;1217;-59
2024/02/22 05:38:16;;;;;;;;;;;;;;;17.97;36.44;94596.13;10517227;28;2396;-59
2024/02/22 05:43:17;;;;;;;;;;;;;;;17.98;36.46;94573.31;10523453;28;1741;-60
2024/02/22 05:48:17;;;;;;;;;;;;;;;17.96;36.56;94555.25;10501394;28;1902;-58
2024/02/22 05:53:17;;;;;;;;;;;;;;;17.96;36.54;94564.94;10511822;28;1482;-58
2024/02/22 05:58:17;;;;;;;;;;;;;;;17.95;36.51;94548.44;10511608;28;1510;-59
2024/02/22 06:03:18;;;;;;;;;;;;;;;18.02;36.46;94567.22;10519789;28;1639;-58
2024/02/22 06:08:18;;;;;;;;;;;;;;;18.06;36.33;94562.19;10509633;28;1906;-59
2024/02/22 06:13:19;;;;;;;;;;;;;;;18.03;36.35;94565.38;10518044;28;1608;-59
2024/02/22 06:18:19;;;;;;;;;;;;;;;18.08;36.48;94560.03;10512976;28;1358;-59
2024/02/22 06:23:19;;;;;;;;;;;;;;;18.05;36.21;94553.56;10513599;28;1338;-59
2024/02/22 06:28:20;;;;;;;;;;;;;;;18.07;36.37;94550.63;10510872;28;1909;-59
2024/02/22 06:33:21;;;;;;;;;;;;;;;18.04;36.37;94535.47;10519815;28;2410;-59
2024/02/22 06:38:23;;;;;;;;;;;;;;;18.11;36.25;94528.03;10513858;28;1698;-58
2024/02/22 06:43:23;;;;;;;;;;;;;;;18.08;36.41;94518.88;10523464;28;1000;-59
2024/02/22 06:48:23;;;;;;;;;;;;;;;18.13;36.23;94508.31;10511129;28;1977;-59
2024/02/22 06:53:24;;;;;;;;;;;;;;;18.07;36.36;94524.41;10523636;28;1945;-59
2024/02/22 06:58:24;;;;;;;;;;;;;;;18.11;36.32;94520.16;10515351;28;1021;-59
2024/02/22 07:03:25;;;;;;;;;;;;;;;18.10;36.39;94514.13;10526887;28;1805;-59
2024/02/22 07:08:25;;;;;;;;;;;;;;;18.17;36.21;94508.50;10510856;28;1922;-59
2024/02/22 07:13:25;;;;;;;;;;;;;;;18.14;36.30;94515.09;10524544;28;1394;-59
2024/02/22 07:18:26;;;;;;;;;;;;;;;18.16;36.26;94501.69;10529094;28;1049;-59
2024/02/22 07:23:26;;;;;;;;;;;;;;;18.13;36.26;94497.03;10509948;28;1350;-59
2024/02/22 07:28:26;;;;;;;;;;;;;;;18.16;36.25;94475.47;10508451;28;2450;-59
2024/02/22 07:33:26;;;;;;;;;;;;;;;18.15;36.29;94477.34;10509858;28;1563;-59
2024/02/22 07:38:27;;;;;;;;;;;;;;;18.21;36.30;94475.41;10510445;28;1394;-56
2024/02/22 07:43:27;;;;;;;;;;;;;;;18.26;36.11;94476.06;10516843;28;1706;-59
2024/02/22 07:48:27;;;;;;;;;;;;;;;18.26;36.06;94480.56;10512304;28;1973;-58
2024/02/22 07:53:30;;;;;;;;;;;;;;;18.29;36.19;94479.97;10510266;28;1481;-60
2024/02/22 07:58:31;;;;;;;;;;;;;;;18.23;36.04;94486.38;10515040;28;1747;-59
2024/02/22 08:03:32;;;;;;;;;;;;;;;18.32;36.00;94489.91;10511107;28;1425;-58
2024/02/22 08:08:33;;;;;;;;;;;;;;;18.21;36.00;94470.94;10513908;28;1934;-58
2024/02/22 08:13:33;;;;;;;;;;;;;;;18.22;36.17;94461.19;10520811;28;1350;-59
2024/02/22 08:18:34;;;;;;;;;;;;;;;18.27;36.22;94469.00;10520063;28;1718;-59
2024/02/22 08:23:34;;;;;;;;;;;;;;;18.25;35.92;94455.38;10526358;28;1386;-59
2024/02/22 08:28:34;;;;;;;;;;;;;;;18.32;35.95;94443.44;10516020;28;2394;-59
2024/02/22 08:33:35;;;;;;;;;;;;;;;18.32;36.10;94440.06;10522436;28;1750;-58
2024/02/22 08:38:35;;;;;;;;;;;;;;;18.29;36.07;94435.38;10518957;28;1438;-59
2024/02/22 08:43:35;;;;;;;;;;;;;;;18.29;36.16;94448.50;10523618;28;2041;-59
2024/02/22 08:48:35;;;;;;;;;;;;;;;18.33;35.97;94438.97;10529934;28;1956;-59
2024/02/22 08:53:38;;;;;;;;;;;;;;;18.33;36.13;94434.53;10528587;28;1568;-59
2024/02/22 08:58:38;;;;;;;;;;;;;;;18.33;36.10;94434.53;10526321;28;1006;-59
2024/02/22 09:03:38;;;;;;;;;;;;;;;18.37;36.20;94435.50;10527615;28;1426;-59
2024/02/22 09:08:41;;;;;;;;;;;;;;;18.35;36.04;94403.53;10506871;28;1969;-59
2024/02/22 09:13:41;;;;;;;;;;;;;;;18.32;35.92;94408.59;10525502;28;1026;-59
2024/02/22 09:18:42;;;;;;;;;;;;;;;18.30;36.19;94397.59;10520548;28;1628;-59
2024/02/22 09:23:44;;;;;;;;;;;;;;;18.31;36.15;94394.69;10513418;28;2326;-59
2024/02/22 09:28:44;;;;;;;;;;;;;;;18.40;36.17;94382.41;10532830;28;1976;-59
2024/02/22 09:33:45;;;;;;;;;;;;;;;18.39;36.18;94374.84;10508233;28;1501;-59
2024/02/22 09:38:45;;;;;;;;;;;;;;;18.42;35.85;94367.16;10525361;28;1658;-59
2024/02/22 09:43:45;;;;;;;;;;;;;;;18.45;36.11;94373.72;10525068;28;1782;-59
2024/02/22 09:48:45;;;;;;;;;;;;;;;18.35;36.03;94363.38;10519815;28;1890;-59
2024/02/22 09:53:46;;;;;;;;;;;;;;;18.38;36.03;94368.06;10515713;28;1350;-59
2024/02/22 09:58:47;;;;;;;;;;;;;;;18.36;36.15;94357.84;10521617;28;1707;-59
2024/02/22 10:03:48;;;;;;;;;;;;;;;18.44;36.22;94365.06;10520566;28;1294;-59
2024/02/22 10:08:48;;;;;;;;;;;;;;;18.49;35.99;94356.31;10521148;28;1967;-59
2024/02/22 10:13:56;;;;;;;;;;;;;;;18.40;36.10;94347.56;10511439;28;2300;-59
2024/02/22 10:19:03;;;;;;;;;;;;;;;18.49;36.03;94346.59;10526168;28;1320;-59
2024/02/22 10:24:03;;;;;;;;;;;;;;;18.47;36.00;94335.63;10508167;28;1374;-59
2024/02/22 10:29:06;;;;;;;;;;;;;;;18.48;36.00;94321.44;10519529;28;1946;-59
2024/02/22 10:34:07;;;;;;;;;;;;;;;18.44;36.22;94312.59;10513830;28;1673;-59
2024/02/22 10:39:07;;;;;;;;;;;;;;;18.46;36.05;94310.47;10527771;27;1655;-59
2024/02/22 10:44:07;;;;;;;;;;;;;;;18.47;36.26;94298.88;10528260;28;1177;-59
2024/02/22 10:49:10;;;;;;;;;;;;;;;18.52;36.10;94298.00;10512980;28;1913;-59
2024/02/22 10:54:11;;;;;;;;;;;;;;;18.55;36.09;94289.53;10515352;28;2493;-59
2024/02/22 10:59:13;;;;;;;;;;;;;;;18.49;36.09;94265.25;10523307;28;1341;-59
2024/02/22 11:04:14;;;;;;;;;;;;;;;18.57;36.07;94261.16;10518416;28;982;-59
2024/02/22 11:09:21;;;;;;;;;;;;;;;18.47;36.05;94245.63;10516569;28;1977;-59
2024/02/22 11:14:40;;;;;;;;;;;;;;;18.46;36.29;94223.88;10515398;28;1145;-58
2024/02/22 11:19:41;;;;;;;;;;;;;;;18.56;36.16;94213.16;10530192;28;1361;-59
2024/02/22 11:24:42;;;;;;;;;;;;;;;18.52;36.22;94206.19;10522935;28;1636;-59
2024/02/22 11:29:42;;;;;;;;;;;;;;;18.55;36.24;94177.47;10508480;28;1906;-59
2024/02/22 11:34:42;;;;;;;;;;;;;;;18.50;36.28;94168.97;10513708;28;1565;-59
2024/02/22 11:39:43;;;;;;;;;;;;;;;18.56;36.07;94144.16;10515879;28;1342;-59
2024/02/22 11:44:43;;;;;;;;;;;;;;;18.53;36.34;94134.25;10519378;28;2513;-59
2024/02/22 11:49:43;;;;;;;;;;;;;;;18.63;35.92;94113.00;10520580;28;1980;-58
2024/02/22 11:54:48;;;;;;;;;;;;;;;18.68;35.90;94097.13;10510319;28;1632;-59
2024/02/22 11:59:49;;;;;;;;;;;;;;;18.67;36.04;94093.72;10536448;28;1550;-59
2024/02/22 12:04:50;;;;;;;;;;;;;;;18.63;36.16;94086.75;10528961;28;1473;-59
2024/02/22 12:09:50;;;;;;;;;;;;;;;18.63;36.21;94076.25;10534475;28;1968;-59
2024/02/22 12:14:58;;;;;;;;;;;;;;;18.67;36.17;94066.69;10516474;28;1426;-59
2024/02/22 12:19:59;;;;;;;;;;;;;;;18.65;36.33;94060.97;10539494;28;1085;-59
2024/02/22 12:24:59;;;;;;;;;;;;;;;18.68;36.16;94042.03;10513690;28;1567;-59
2024/02/22 12:30:01;;;;;;;;;;;;;;;18.65;36.20;94026.88;10519441;28;1913;-59
2024/02/22 12:35:01;;;;;;;;;;;;;;;18.66;36.20;94013.47;10521900;28;1802;-59
2024/02/22 12:40:08;;;;;;;;;;;;;;;18.67;36.25;93994.00;10520712;28;2465;-58
2024/02/22 12:45:08;;;;;;;;;;;;;;;18.66;36.21;93983.81;10521699;28;1543;-59
2024/02/22 12:50:09;;;;;;;;;;;;;;;18.64;36.18;93960.50;10513705;28;1906;-59
2024/02/22 12:55:09;;;;;;;;;;;;;;;18.66;36.30;93939.97;10520348;28;1525;-59
2024/02/22 13:00:10;;;;;;;;;;;;;;;18.66;36.44;93939.19;10524906;28;1608;-58
2024/02/22 13:05:10;;;;;;;;;;;;;;;18.65;36.25;93932.38;10516389;28;1306;-59
2024/02/22 13:10:11;;;;;;;;;;;;;;;18.71;36.36;93909.44;10520606;28;1921;-59
2024/02/22 13:15:11;;;;;;;;;;;;;;;18.62;36.37;93893.66;10509235;28;1441;-60
2024/02/22 13:20:14;;;;;;;;;;;;;;;18.60;36.45;93870.34;10518991;28;1092;-59
2024/02/22 13:25:14;;;;;;;;;;;;;;;18.67;36.38;93859.38;10518109;28;1593;-59
2024/02/22 13:30:15;;;;;;;;;;;;;;;18.68;36.35;93853.84;10523569;28;1983;-59
2024/02/22 13:35:15;;;;;;;;;;;;;;;18.62;36.58;93843.78;10518835;28;1624;-59
2024/02/22 13:40:16;;;;;;;;;;;;;;;18.61;36.44;93829.13;10524750;28;2315;-59
2024/02/22 13:45:17;;;;;;;;;;;;;;;18.73;36.38;93829.31;10520216;28;1778;-59
2024/02/22 13:50:18;;;;;;;;;;;;;;;18.71;36.32;93820.19;10514106;28;1906;-59
2024/02/22 13:55:18;;;;;;;;;;;;;;;18.73;36.44;93810.94;10514585;28;1556;-59
2024/02/22 14:00:18;;;;;;;;;;;;;;;18.70;36.40;93795.78;10528666;28;1937;-59
2024/02/22 14:05:19;;;;;;;;;;;;;;;18.74;36.17;93788.84;10518671;28;1552;-59
2024/02/22 14:10:20;;;;;;;;;;;;;;;18.66;36.49;93784.38;10512654;28;1988;-59
2024/02/22 14:15:21;;;;;;;;;;;;;;;18.63;36.62;93770.00;10517333;28;1424;-59
2024/02/22 14:20:22;;;;;;;;;;;;;;;18.65;36.53;93783.59;10520615;28;1981;-59
2024/02/22 14:25:22;;;;;;;;;;;;;;;18.67;36.47;93773.56;10528142;28;1160;-59
2024/02/22 14:30:22;;;;;;;;;;;;;;;18.66;36.44;93766.00;10523100;28;1967;-59
2024/02/22 14:35:23;;;;;;;;;;;;;;;18.62;36.67;93760.59;10516908;28;2310;-59
2024/02/22 14:40:23;;;;;;;;;;;;;;;18.69;36.62;93739.91;10525983;28;1589;-59
2024/02/22 14:45:23;;;;;;;;;;;;;;;18.65;36.52;93743.44;10520810;28;1538;-59
2024/02/22 14:50:24;;;;;;;;;;;;;;;18.74;36.59;93741.59;10516870;28;1909;-59
2024/02/22 14:55:24;;;;;;;;;;;;;;;18.66;36.49;93743.16;10518951;28;1550;-59
2024/02/22 15:00:25;;;;;;;;;;;;;;;18.73;36.37;93745.31;10529645;28;1425;-59
2024/02/22 15:05:25;;;;;;;;;;;;;;;18.76;36.64;93749.16;10530830;28;1668;-59
2024/02/22 15:10:26;;;;;;;;;;;;;;;18.74;36.66;93741.59;10520535;28;1906;-61
2024/02/22 15:15:27;;;;;;;;;;;;;;;18.65;36.79;93720.59;10518873;28;1345;-59
2024/02/22 15:20:27;;;;;;;;;;;;;;;18.67;36.70;93707.16;10517395;28;1306;-59
2024/02/22 15:25:28;;;;;;;;;;;;;;;18.69;36.57;93712.91;10525207;28;1027;-59
2024/02/22 15:30:29;;;;;;;;;;;;;;;18.68;36.83;93706.09;10540391;28;1985;-59
2024/02/22 15:35:29;;;;;;;;;;;;;;;18.79;36.63;93706.56;10516155;28;2459;-59
2024/02/22 15:40:29;;;;;;;;;;;;;;;18.68;36.85;93713.97;10530552;28;1102;-59
2024/02/22 15:45:29;;;;;;;;;;;;;;;18.78;36.43;93723.38;10523833;28;1800;-58
2024/02/22 15:50:30;;;;;;;;;;;;;;;18.77;36.68;93720.00;10519438;28;1981;-59
2024/02/22 15:55:30;;;;;;;;;;;;;;;18.80;36.50;93708.88;10525656;28;975;-59
2024/02/22 16:00:30;;;;;;;;;;;;;;;18.73;36.75;93700.72;10524242;28;1601;-59
2024/02/22 16:05:32;;;;;;;;;;;;;;;18.79;36.70;93696.84;10517501;28;1291;-59
2024/02/22 16:10:32;;;;;;;;;;;;;;;18.84;36.64;93701.91;10519064;28;1909;-59
2024/02/22 16:15:33;;;;;;;;;;;;;;;18.84;36.56;93699.28;10521481;28;1338;-60
2024/02/22 16:20:33;;;;;;;;;;;;;;;18.88;36.61;93689.72;10521308;28;1331;-59
2024/02/22 16:25:33;;;;;;;;;;;;;;;18.85;36.73;93689.56;10527139;28;1087;-59
2024/02/22 16:30:33;;;;;;;;;;;;;;;18.85;36.71;93685.09;10519694;28;2429;-59
2024/02/22 16:35:34;;;;;;;;;;;;;;;18.86;36.66;93676.13;10519729;28;1386;-59
2024/02/22 16:40:34;;;;;;;;;;;;;;;18.91;36.63;93673.34;10518490;28;1059;-58
2024/02/22 16:45:34;;;;;;;;;;;;;;;18.91;36.45;93672.56;10520090;28;1652;-59
2024/02/22 16:50:34;;;;;;;;;;;;;;;18.93;36.64;93671.19;10517646;28;1909;-59
2024/02/22 16:55:35;;;;;;;;;;;;;;;18.92;36.60;93643.38;10520708;28;1652;-59
2024/02/22 17:00:35;;;;;;;;;;;;;;;18.94;36.39;93640.44;10518704;28;1366;-59
2024/02/22 17:05:35;;;;;;;;;;;;;;;18.88;36.67;93652.19;10519971;28;1358;-58
2024/02/22 17:10:36;;;;;;;;;;;;;;;18.97;36.47;93672.09;10521014;28;1960;-59
2024/02/22 17:15:36;;;;;;;;;;;;;;;18.90;36.66;93674.41;10520490;28;1489;-59
2024/02/22 17:20:36;;;;;;;;;;;;;;;18.92;36.67;93669.63;10522339;28;1358;-59
2024/02/22 17:25:36;;;;;;;;;;;;;;;18.94;36.63;93669.34;10536928;28;2407;-59
2024/02/22 17:30:37;;;;;;;;;;;;;;;18.94;36.68;93670.09;10514344;28;1988;-59
2024/02/22 17:35:37;;;;;;;;;;;;;;;18.89;36.63;93670.25;10508482;28;1892;-59
2024/02/22 17:40:38;;;;;;;;;;;;;;;18.97;36.48;93700.97;10515677;28;1781;-59
2024/02/22 17:45:38;;;;;;;;;;;;;;;18.93;36.51;93700.06;10512542;28;1456;-59
2024/02/22 17:50:39;;;;;;;;;;;;;;;18.95;36.83;93679.50;10515160;28;1922;-60
2024/02/22 17:55:39;;;;;;;;;;;;;;;18.98;36.70;93668.38;10514297;28;1581;-59
2024/02/22 18:00:41;;;;;;;;;;;;;;;18.93;36.54;93660.69;10525500;28;1050;-59
2024/02/22 18:05:42;;;;;;;;;;;;;;;18.97;36.60;93640.59;10516078;28;1378;-61
2024/02/22 18:10:42;;;;;;;;;;;;;;;18.96;36.57;93625.16;10507343;28;1963;-59
2024/02/22 18:15:42;;;;;;;;;;;;;;;18.94;36.85;93635.94;10521435;28;1429;-59
2024/02/22 18:20:44;;;;;;;;;;;;;;;18.92;36.57;93650.50;10522557;28;2314;-59
2024/02/22 18:25:44;;;;;;;;;;;;;;;18.98;36.57;93636.13;10518201;28;998;-59
2024/02/22 18:30:47;;;;;;;;;;;;;;;19.01;36.63;93628.38;10512879;28;1937;-59
2024/02/22 18:35:47;;;;;;;;;;;;;;;18.98;36.57;93615.13;10510721;28;1666;-59
2024/02/22 18:40:48;;;;;;;;;;;;;;;18.98;36.89;93600.09;10515115;28;1134;-59
2024/02/22 18:45:48;;;;;;;;;;;;;;;19.03;36.50;93583.41;10513001;28;1453;-59
2024/02/22 18:50:48;;;;;;;;;;;;;;;18.96;36.88;93591.03;10509703;28;1984;-59
2024/02/22 18:55:49;;;;;;;;;;;;;;;18.98;36.75;93573.09;10512977;28;1051;-60
2024/02/22 19:00:49;;;;;;;;;;;;;;;18.99;36.66;93564.91;10509038;28;1298;-59
2024/02/22 19:05:50;;;;;;;;;;;;;;;19.03;36.66;93567.66;10497212;28;1433;-61
2024/02/22 19:10:50;;;;;;;;;;;;;;;19.00;36.74;93555.19;10511231;28;1972;-59
2024/02/22 19:15:51;;;;;;;;;;;;;;;19.07;36.81;93550.19;10522300;28;1357;-58
2024/02/22 19:20:51;;;;;;;;;;;;;;;19.01;36.67;93541.72;10531718;28;2484;-59
2024/02/22 19:25:52;;;;;;;;;;;;;;;19.08;36.48;93539.38;10526822;28;1624;-59
2024/02/22 19:30:55;;;;;;;;;;;;;;;19.07;36.63;93542.31;10525009;28;1901;-59
2024/02/22 19:35:55;;;;;;;;;;;;;;;19.08;36.58;93536.75;10530277;28;1385;-59
2024/02/22 19:40:55;;;;;;;;;;;;;;;19.01;36.76;93525.97;10527215;28;1765;-59
2024/02/22 19:45:55;;;;;;;;;;;;;;;19.03;36.75;93517.78;10512376;28;1362;-59
2024/02/22 19:50:56;;;;;;;;;;;;;;;19.03;36.49;93510.69;10505374;28;1969;-59
2024/02/22 19:55:56;;;;;;;;;;;;;;;19.02;36.64;93522.25;10517412;28;2600;-59
2024/02/22 20:00:57;;;;;;;;;;;;;;;19.05;36.68;93524.25;10518921;28;1609;-60
2024/02/22 20:05:57;;;;;;;;;;;;;;;19.09;36.68;93532.25;10505803;28;1549;-59
2024/02/22 20:10:59;;;;;;;;;;;;;;;19.11;36.52;93509.84;10520457;28;1973;-59
2024/02/22 20:15:59;;;;;;;;;;;;;;;19.06;36.55;93502.16;10523375;28;1478;-59
2024/02/22 20:21:00;;;;;;;;;;;;;;;19.07;36.87;93495.81;10519594;28;1382;-59
2024/02/22 20:26:00;;;;;;;;;;;;;;;19.06;36.78;93496.91;10519324;28;1609;-59
2024/02/22 20:31:01;;;;;;;;;;;;;;;19.07;36.83;93487.94;10517276;28;1971;-59
2024/02/22 20:36:01;;;;;;;;;;;;;;;19.04;36.92;93480.69;10512851;28;1456;-60
2024/02/22 20:41:02;;;;;;;;;;;;;;;19.07;36.70;93482.69;10505469;28;990;-59
2024/02/22 20:46:02;;;;;;;;;;;;;;;19.09;36.58;93475.28;10520351;28;1401;-59
2024/02/22 20:51:03;;;;;;;;;;;;;;;19.07;36.63;93482.69;10533792;28;2244;-59
2024/02/22 20:56:04;;;;;;;;;;;;;;;19.07;36.71;93482.69;10498369;28;1047;-59
2024/02/22 21:01:04;;;;;;;;;;;;;;;19.06;36.51;93481.16;10517098;28;1429;-59
2024/02/22 21:06:05;;;;;;;;;;;;;;;19.05;36.79;93474.38;10519625;28;1770;-59
2024/02/22 21:11:08;;;;;;;;;;;;;;;19.02;36.67;93466.38;10516276;28;1979;-59
2024/02/22 21:16:08;;;;;;;;;;;;;;;18.98;36.75;93468.84;10515453;28;1390;-59
2024/02/22 21:21:11;;;;;;;;;;;;;;;18.93;36.96;93479.53;10511304;28;1656;-59
2024/02/22 21:26:11;;;;;;;;;;;;;;;18.84;37.15;93480.66;10517578;28;1176;-59
2024/02/22 21:31:11;;;;;;;;;;;;;;;18.84;36.98;93467.53;10517887;28;1909;-59
2024/02/22 21:36:11;;;;;;;;;;;;;;;18.72;37.33;93489.19;10512505;28;1303;-59
2024/02/22 21:41:13;;;;;;;;;;;;;;;18.74;37.19;93508.03;10526566;28;1260;-59
2024/02/22 21:46:13;;;;;;;;;;;;;;;18.67;37.46;93499.84;10521158;28;1349;-59
2024/02/22 21:51:13;;;;;;;;;;;;;;;18.56;37.71;93504.72;10522496;28;2308;-59
2024/02/22 21:56:13;;;;;;;;;;;;;;;18.59;37.40;93508.53;10526668;28;1467;-59
2024/02/22 22:01:14;;;;;;;;;;;;;;;18.62;37.34;93492.19;10526082;28;1551;-59
2024/02/22 22:06:15;;;;;;;;;;;;;;;18.51;37.74;93485.72;10512578;28;1836;-59
2024/02/22 22:11:16;;;;;;;;;;;;;;;18.48;37.72;93487.16;10523312;28;1973;-59
2024/02/22 22:16:16;;;;;;;;;;;;;;;18.45;37.77;93486.97;10504106;28;1370;-59
2024/02/22 22:21:16;;;;;;;;;;;;;;;18.43;37.73;93492.56;10518880;28;1632;-58
2024/02/22 22:26:17;;;;;;;;;;;;;;;18.40;37.67;93481.91;10514356;27;1047;-59
2024/02/22 22:31:17;;;;;;;;;;;;;;;18.33;37.82;93476.34;10506284;28;1906;-59
2024/02/22 22:36:17;;;;;;;;;;;;;;;18.26;38.16;93462.97;10508746;28;1888;-59
2024/02/22 22:41:20;;;;;;;;;;;;;;;18.29;37.92;93454.47;10513423;28;1026;-59
2024/02/22 22:46:20;;;;;;;;;;;;;;;18.22;38.21;93456.78;10515964;28;2340;-59
2024/02/22 22:51:22;;;;;;;;;;;;;;;18.21;38.23;93463.13;10506918;28;1998;-59
2024/02/22 22:56:22;;;;;;;;;;;;;;;18.16;38.33;93479.78;10508950;28;988;-59
2024/02/22 23:01:22;;;;;;;;;;;;;;;18.16;38.29;93536.69;10508949;28;1585;-59
2024/02/22 23:06:23;;;;;;;;;;;;;;;18.10;38.50;93591.16;10522551;28;1394;-59
2024/02/22 23:11:23;;;;;;;;;;;;;;;18.12;38.35;93625.69;10524283;28;1917;-59
2024/02/22 23:16:24;;;;;;;;;;;;;;;18.14;38.16;93669.94;10512800;28;1301;-59
2024/02/22 23:21:32;;;;;;;;;;;;;;;18.10;38.12;93690.00;10519827;28;1401;-59
2024/02/22 23:26:33;;;;;;;;;;;;;;;18.09;38.21;93720.72;10513737;28;1298;-59
2024/02/22 23:31:33;;;;;;;;;;;;;;;18.08;38.20;93723.63;10518873;28;1909;-59
2024/02/22 23:36:34;;;;;;;;;;;;;;;18.03;38.33;93710.66;10513761;28;1422;-59
2024/02/22 23:41:34;;;;;;;;;;;;;;;18.05;38.28;93735.50;10512902;28;2406;-59
2024/02/22 23:46:35;;;;;;;;;;;;;;;18.04;38.20;93733.16;10519419;28;1844;-59
2024/02/22 23:51:37;;;;;;;;;;;;;;;18.00;38.28;93733.03;10511236;28;1689;-59
2024/02/22 23:56:37;;;;;;;;;;;;;;;17.98;38.48;93755.38;10519684;28;1585;-59
